Time;durP1;ratioP1;P1;durP2;ratioP2;P2;SDS_P1;SDS_P2;PMS_P1;PMS_P2;Temp;Humidity;BMP_temperature;BMP_pressure;BME280_temperature;BME280_humidity;BME280_pressure;Samples;Min_cycle;Max_cycle;Signal;HPM_P1;HPM_P2
2024/03/24 00:01:04;;;;;;;3.33;1.90;;;;;;;;;;6120651;23;20600;-90
2024/03/24 00:03:38;;;;;;;2.60;1.93;;;;;;;;;;6067364;23;20476;-87
2024/03/24 00:06:12;;;;;;;2.90;2.13;;;;;;;;;;6081267;23;20425;-85
2024/03/24 00:08:41;;;;;;;1.70;1.47;;;;;;;;;;6075521;23;20433;-87
2024/03/24 00:11:07;;;;;;;2.27;1.70;;;;;;;;;;6077431;23;20405;-85
2024/03/24 00:13:33;;;;;;;1.90;1.80;;;;;;;;;;6074940;23;20398;-85
2024/03/24 00:15:59;;;;;;;3.40;1.80;;;;;;;;;;6076236;23;20406;-87
2024/03/24 00:18:26;;;;;;;3.20;1.90;;;;;;;;;;6073464;23;20417;-86
2024/03/24 00:20:53;;;;;;;3.20;1.87;;;;;;;;;;6081574;23;20463;-86
2024/03/24 00:23:21;;;;;;;3.90;2.10;;;;;;;;;;6090570;23;20584;-87
2024/03/24 00:25:52;;;;;;;5.80;2.00;;;;;;;;;;6088371;23;20476;-89
2024/03/24 00:28:24;;;;;;;5.03;2.70;;;;;;;;;;6083326;23;20453;-87
2024/03/24 00:30:50;;;;;;;2.10;1.90;;;;;;;;;;6079677;23;20410;-88
2024/03/24 00:33:22;;;;;;;2.60;2.13;;;;;;;;;;6076453;23;20416;-87
2024/03/24 00:35:48;;;;;;;2.57;1.90;;;;;;;;;;6098894;23;20984;-87
2024/03/24 00:38:15;;;;;;;5.10;1.87;;;;;;;;;;6075815;23;20973;-86
2024/03/24 00:40:44;;;;;;;2.90;2.07;;;;;;;;;;6076643;23;20446;-87
2024/03/24 00:43:10;;;;;;;4.60;2.60;;;;;;;;;;6079920;23;20394;-88
2024/03/24 00:45:40;;;;;;;3.60;2.03;;;;;;;;;;6073634;23;20414;-87
2024/03/24 00:48:07;;;;;;;5.43;2.10;;;;;;;;;;6075452;23;20421;-86
2024/03/24 00:50:36;;;;;;;2.70;2.17;;;;;;;;;;6078554;23;20809;-87
2024/03/24 00:53:12;;;;;;;2.87;2.10;;;;;;;;;;6074424;23;20406;-86
2024/03/24 00:55:39;;;;;;;2.70;2.47;;;;;;;;;;6076554;23;20973;-85
2024/03/24 00:58:20;;;;;;;4.47;2.40;;;;;;;;;;6074873;23;20430;-86
2024/03/24 01:00:49;;;;;;;2.87;2.20;;;;;;;;;;6075628;23;20442;-88
2024/03/24 01:03:21;;;;;;;5.00;2.50;;;;;;;;;;6090933;23;20473;-85
2024/03/24 01:05:51;;;;;;;4.43;3.13;;;;;;;;;;6088850;23;20505;-86
2024/03/24 01:08:24;;;;;;;4.83;3.00;;;;;;;;;;6082773;23;20425;-87
2024/03/24 01:10:53;;;;;;;2.87;2.53;;;;;;;;;;6079127;23;20402;-86
2024/03/24 01:13:34;;;;;;;3.33;2.87;;;;;;;;;;6113542;23;20401;-88
2024/03/24 01:16:07;;;;;;;5.23;2.73;;;;;;;;;;6092302;23;20469;-88
2024/03/24 01:18:36;;;;;;;3.40;3.10;;;;;;;;;;6117062;23;20488;-88
2024/03/24 01:21:02;;;;;;;5.20;2.77;;;;;;;;;;6092809;23;20509;-87
2024/03/24 01:23:34;;;;;;;5.80;3.20;;;;;;;;;;6092520;23;20477;-87
2024/03/24 01:26:08;;;;;;;6.27;3.27;;;;;;;;;;6084870;23;20908;-87
2024/03/24 01:28:37;;;;;;;5.07;3.17;;;;;;;;;;6074834;23;20427;-85
2024/03/24 01:31:06;;;;;;;4.23;2.30;;;;;;;;;;6078331;23;20416;-85
2024/03/24 01:33:35;;;;;;;4.07;2.60;;;;;;;;;;6075705;23;20406;-87
2024/03/24 01:36:02;;;;;;;5.60;3.50;;;;;;;;;;6074647;23;20406;-88
2024/03/24 01:38:31;;;;;;;2.80;2.60;;;;;;;;;;6074109;23;20426;-87
2024/03/24 01:40:57;;;;;;;3.00;2.80;;;;;;;;;;6073809;23;20480;-86
2024/03/24 01:43:27;;;;;;;4.30;2.50;;;;;;;;;;6074144;23;20415;-86
2024/03/24 01:45:55;;;;;;;2.87;2.27;;;;;;;;;;6099571;23;20424;-86
2024/03/24 01:48:26;;;;;;;6.37;2.97;;;;;;;;;;6074241;23;20484;-86
2024/03/24 01:51:03;;;;;;;3.33;2.17;;;;;;;;;;6074934;23;20409;-87
2024/03/24 01:53:30;;;;;;;5.17;3.20;;;;;;;;;;6071245;23;20405;-87
2024/03/24 01:55:56;;;;;;;4.17;2.80;;;;;;;;;;6069788;23;20414;-88
2024/03/24 01:58:26;;;;;;;4.10;2.90;;;;;;;;;;6104927;23;20426;-85
2024/03/24 02:00:56;;;;;;;3.23;2.93;;;;;;;;;;6076683;23;20445;-86
2024/03/24 02:03:28;;;;;;;4.87;2.93;;;;;;;;;;6073656;23;20424;-88
2024/03/24 02:05:54;;;;;;;3.10;2.80;;;;;;;;;;6096681;23;20408;-87
2024/03/24 02:08:30;;;;;;;2.13;2.03;;;;;;;;;;6095577;23;20482;-88
2024/03/24 02:10:56;;;;;;;3.10;2.60;;;;;;;;;;6070931;23;20413;-87
2024/03/24 02:13:28;;;;;;;5.10;2.87;;;;;;;;;;6072461;23;20398;-86
2024/03/24 02:16:01;;;;;;;2.47;2.27;;;;;;;;;;6072451;23;20410;-87
2024/03/24 02:18:30;;;;;;;4.00;2.93;;;;;;;;;;6070323;23;20430;-88
2024/03/24 02:20:56;;;;;;;3.50;2.70;;;;;;;;;;6070260;23;20461;-89
2024/03/24 02:23:23;;;;;;;3.00;2.80;;;;;;;;;;6071113;23;20723;-87
2024/03/24 02:25:49;;;;;;;3.80;2.87;;;;;;;;;;6071154;23;20402;-87
2024/03/24 02:28:20;;;;;;;3.03;2.77;;;;;;;;;;6070225;23;20431;-88
2024/03/24 02:30:47;;;;;;;2.83;2.60;;;;;;;;;;6070434;23;20431;-87
2024/03/24 02:33:13;;;;;;;3.03;2.67;;;;;;;;;;6070684;23;20464;-87
2024/03/24 02:35:45;;;;;;;9.80;3.33;;;;;;;;;;6069548;23;20416;-85
2024/03/24 02:38:23;;;;;;;2.97;2.63;;;;;;;;;;6069221;23;20746;-87
2024/03/24 02:40:57;;;;;;;2.93;2.70;;;;;;;;;;6076370;23;20453;-87
2024/03/24 02:43:26;;;;;;;6.10;3.10;;;;;;;;;;6084060;23;20410;-88
2024/03/24 02:45:58;;;;;;;3.50;3.20;;;;;;;;;;6082392;23;20402;-88
2024/03/24 02:48:27;;;;;;;8.23;4.10;;;;;;;;;;6098761;23;20421;-87
2024/03/24 02:51:02;;;;;;;4.13;3.50;;;;;;;;;;6075003;23;20406;-86
2024/03/24 02:53:39;;;;;;;4.50;3.50;;;;;;;;;;6073906;23;20742;-86
2024/03/24 02:56:14;;;;;;;5.17;3.50;;;;;;;;;;6072610;23;20401;-86
2024/03/24 02:58:43;;;;;;;7.37;4.17;;;;;;;;;;6068124;23;20443;-84
2024/03/24 03:01:12;;;;;;;5.13;3.80;;;;;;;;;;6071296;23;20445;-87
2024/03/24 03:03:43;;;;;;;3.50;3.30;;;;;;;;;;6093913;23;20414;-87
2024/03/24 03:06:14;;;;;;;3.20;2.30;;;;;;;;;;6069369;23;20796;-87
2024/03/24 03:08:40;;;;;;;3.93;3.10;;;;;;;;;;6092642;23;20947;-87
2024/03/24 03:11:07;;;;;;;4.70;3.43;;;;;;;;;;6069494;23;20923;-86
2024/03/24 03:13:33;;;;;;;4.77;3.03;;;;;;;;;;6094451;23;20474;-86
2024/03/24 03:16:00;;;;;;;3.17;2.87;;;;;;;;;;6092809;23;20406;-86
2024/03/24 03:18:26;;;;;;;4.40;3.70;;;;;;;;;;6066199;23;20465;-86
2024/03/24 03:20:55;;;;;;;3.53;2.83;;;;;;;;;;6068806;23;20450;-87
2024/03/24 03:23:21;;;;;;;3.40;3.20;;;;;;;;;;6070600;23;20405;-87
2024/03/24 03:25:50;;;;;;;7.23;2.17;;;;;;;;;;6067248;23;20405;-87
2024/03/24 03:28:21;;;;;;;3.70;2.73;;;;;;;;;;6091625;23;20426;-87
2024/03/24 03:30:51;;;;;;;5.40;2.40;;;;;;;;;;6067825;23;20402;-86
2024/03/24 03:33:17;;;;;;;4.00;2.03;;;;;;;;;;6093893;23;20401;-87
2024/03/24 03:35:43;;;;;;;5.37;2.77;;;;;;;;;;6070483;23;20410;-88
2024/03/24 03:38:12;;;;;;;3.20;2.73;;;;;;;;;;6069513;23;20484;-87
2024/03/24 03:40:39;;;;;;;4.53;2.60;;;;;;;;;;6069629;23;20519;-86
2024/03/24 03:43:06;;;;;;;4.80;2.43;;;;;;;;;;6070333;23;20404;-86
2024/03/24 03:45:32;;;;;;;5.20;2.73;;;;;;;;;;6072531;23;20394;-85
2024/03/24 03:47:59;;;;;;;2.63;2.43;;;;;;;;;;6072127;23;20425;-86
2024/03/24 03:50:28;;;;;;;3.43;2.30;;;;;;;;;;6072808;23;20402;-85
2024/03/24 03:52:57;;;;;;;3.10;1.80;;;;;;;;;;6074368;23;20401;-86
2024/03/24 03:55:33;;;;;;;2.33;2.13;;;;;;;;;;6092269;23;20457;-87
2024/03/24 03:58:00;;;;;;;2.83;2.27;;;;;;;;;;6090984;23;20476;-87
2024/03/24 04:00:32;;;;;;;5.20;2.50;;;;;;;;;;6102315;23;20819;-86
2024/03/24 04:02:58;;;;;;;2.37;2.00;;;;;;;;;;6078421;23;20425;-87
2024/03/24 04:05:25;;;;;;;2.40;1.70;;;;;;;;;;6102404;23;20415;-86
2024/03/24 04:07:53;;;;;;;4.10;1.80;;;;;;;;;;6079514;23;20422;-87
2024/03/24 04:10:19;;;;;;;1.93;1.70;;;;;;;;;;6076865;23;20707;-88
2024/03/24 04:12:51;;;;;;;2.00;1.57;;;;;;;;;;6100496;23;20411;-86
2024/03/24 04:15:20;;;;;;;3.60;1.87;;;;;;;;;;6077047;23;20406;-87
2024/03/24 04:17:53;;;;;;;1.63;1.23;;;;;;;;;;6071581;23;20927;-86
2024/03/24 04:20:19;;;;;;;2.10;1.60;;;;;;;;;;6072867;23;20402;-84
2024/03/24 04:22:48;;;;;;;1.50;1.40;;;;;;;;;;6095455;23;20405;-87
2024/03/24 04:25:19;;;;;;;2.03;1.70;;;;;;;;;;6072519;23;20904;-85
2024/03/24 04:27:48;;;;;;;3.47;1.77;;;;;;;;;;6070983;23;20808;-85
2024/03/24 04:30:18;;;;;;;3.17;1.60;;;;;;;;;;6071570;23;20461;-86
2024/03/24 04:32:47;;;;;;;2.60;1.60;;;;;;;;;;6072129;23;20410;-86
2024/03/24 04:35:19;;;;;;;1.70;1.40;;;;;;;;;;6072277;23;20406;-86
2024/03/24 04:37:46;;;;;;;1.67;1.50;;;;;;;;;;6070977;23;20422;-87
2024/03/24 04:40:13;;;;;;;2.20;1.40;;;;;;;;;;6073202;23;20408;-86
2024/03/24 04:42:45;;;;;;;2.40;1.50;;;;;;;;;;6073143;23;20509;-86
2024/03/24 04:45:14;;;;;;;1.13;1.13;;;;;;;;;;6071421;23;20394;-86
2024/03/24 04:47:43;;;;;;;1.90;1.40;;;;;;;;;;6073041;23;20422;-85
2024/03/24 04:50:09;;;;;;;1.77;1.67;;;;;;;;;;6072839;23;20401;-86
2024/03/24 04:52:36;;;;;;;1.60;1.20;;;;;;;;;;6073107;23;20410;-87
2024/03/24 04:55:02;;;;;;;1.70;1.60;;;;;;;;;;6071012;23;20406;-86
2024/03/24 04:57:29;;;;;;;2.10;1.67;;;;;;;;;;6071477;23;20743;-86
2024/03/24 05:00:07;;;;;;;2.43;1.87;;;;;;;;;;6102803;23;20479;-85
2024/03/24 05:02:34;;;;;;;2.50;2.07;;;;;;;;;;6083653;23;20477;-87
2024/03/24 05:05:01;;;;;;;3.10;2.37;;;;;;;;;;6074402;23;20406;-86
2024/03/24 05:07:29;;;;;;;2.30;2.20;;;;;;;;;;6098826;23;20402;-87
2024/03/24 05:09:56;;;;;;;2.70;2.43;;;;;;;;;;6074882;23;20419;-85
2024/03/24 05:12:25;;;;;;;5.63;2.27;;;;;;;;;;6073879;23;20402;-85
2024/03/24 05:15:00;;;;;;;5.27;2.13;;;;;;;;;;6097942;23;20406;-86
2024/03/24 05:17:32;;;;;;;4.67;2.60;;;;;;;;;;6078039;23;20385;-86
2024/03/24 05:19:58;;;;;;;3.03;2.50;;;;;;;;;;6081347;23;20416;-87
2024/03/24 05:22:35;;;;;;;2.73;1.73;;;;;;;;;;6101559;23;20442;-87
2024/03/24 05:25:08;;;;;;;2.40;2.20;;;;;;;;;;6088224;23;20390;-87
2024/03/24 05:27:37;;;;;;;4.37;2.20;;;;;;;;;;6091421;23;20464;-89
2024/03/24 05:30:05;;;;;;;2.60;2.40;;;;;;;;;;6090971;23;20468;-86
2024/03/24 05:32:34;;;;;;;4.23;2.30;;;;;;;;;;6088322;23;20396;-86
2024/03/24 05:35:10;;;;;;;4.60;2.93;;;;;;;;;;6085532;23;20401;-86
2024/03/24 05:37:37;;;;;;;2.50;2.30;;;;;;;;;;6090633;23;20480;-88
2024/03/24 05:40:16;;;;;;;2.63;2.10;;;;;;;;;;6093319;23;20468;-88
2024/03/24 05:42:42;;;;;;;3.33;2.40;;;;;;;;;;6117701;23;20521;-89
2024/03/24 05:45:09;;;;;;;3.00;2.33;;;;;;;;;;6089928;23;20473;-86
2024/03/24 05:47:38;;;;;;;7.73;2.40;;;;;;;;;;6111480;23;20402;-87
2024/03/24 05:50:05;;;;;;;4.00;2.47;;;;;;;;;;6087431;23;20429;-87
2024/03/24 05:52:31;;;;;;;3.13;2.93;;;;;;;;;;6086475;23;20420;-85
2024/03/24 05:54:58;;;;;;;4.07;2.60;;;;;;;;;;6086743;23;20402;-87
2024/03/24 05:57:27;;;;;;;3.90;2.37;;;;;;;;;;6083911;23;20437;-87
2024/03/24 05:59:53;;;;;;;2.30;2.10;;;;;;;;;;6084400;23;20401;-87
2024/03/24 06:02:22;;;;;;;3.83;3.00;;;;;;;;;;6084162;23;20445;-88
2024/03/24 06:04:49;;;;;;;5.77;2.80;;;;;;;;;;6083580;23;20406;-86
2024/03/24 06:07:18;;;;;;;2.37;2.10;;;;;;;;;;6081392;23;20412;-87
2024/03/24 06:09:47;;;;;;;4.03;3.20;;;;;;;;;;6082816;23;20406;-86
2024/03/24 06:12:13;;;;;;;6.53;2.93;;;;;;;;;;6084769;23;20441;-87
2024/03/24 06:14:44;;;;;;;7.07;3.30;;;;;;;;;;6108060;23;20436;-88
2024/03/24 06:17:10;;;;;;;9.37;3.30;;;;;;;;;;6083283;23;20406;-87
2024/03/24 06:19:45;;;;;;;5.90;3.50;;;;;;;;;;6106410;23;20439;-88
2024/03/24 06:22:17;;;;;;;6.90;3.37;;;;;;;;;;6083086;23;20433;-88
2024/03/24 06:24:55;;;;;;;4.70;3.30;;;;;;;;;;6080739;23;20445;-89
2024/03/24 06:27:24;;;;;;;7.27;3.80;;;;;;;;;;6076053;23;20404;-87
2024/03/24 06:29:52;;;;;;;7.47;3.80;;;;;;;;;;6076137;23;20793;-89
2024/03/24 06:32:19;;;;;;;6.77;2.97;;;;;;;;;;6075826;23;20406;-89
2024/03/24 06:34:51;;;;;;;8.20;3.00;;;;;;;;;;6075884;23;20405;-88
2024/03/24 06:37:17;;;;;;;5.10;3.43;;;;;;;;;;6074964;23;20416;-88
2024/03/24 06:39:44;;;;;;;4.50;3.20;;;;;;;;;;6075443;23;20428;-89
2024/03/24 06:42:10;;;;;;;7.60;3.93;;;;;;;;;;6075350;23;20477;-89
2024/03/24 06:44:37;;;;;;;6.97;4.23;;;;;;;;;;6100438;23;20735;-87
2024/03/24 06:47:10;;;;;;;5.07;3.27;;;;;;;;;;6076437;23;20405;-87
2024/03/24 06:49:37;;;;;;;8.63;3.20;;;;;;;;;;6091467;23;20424;-87
2024/03/24 06:52:04;;;;;;;9.13;3.20;;;;;;;;;;6092427;23;20497;-85
2024/03/24 06:54:33;;;;;;;5.63;2.80;;;;;;;;;;6090846;23;20480;-87
2024/03/24 06:57:00;;;;;;;8.23;3.00;;;;;;;;;;6087240;23;20395;-86
2024/03/24 06:59:36;;;;;;;13.90;4.23;;;;;;;;;;6075792;23;20432;-87
2024/03/24 07:02:13;;;;;;;5.70;3.70;;;;;;;;;;6074423;23;20773;-88
2024/03/24 07:04:57;;;;;;;8.90;3.60;;;;;;;;;;6094927;23;20466;-88
2024/03/24 07:07:26;;;;;;;7.60;3.37;;;;;;;;;;6074500;23;20410;-89
2024/03/24 07:09:52;;;;;;;4.90;3.00;;;;;;;;;;6074364;23;20429;-86
2024/03/24 07:12:18;;;;;;;6.27;3.10;;;;;;;;;;6075640;23;20709;-87
2024/03/24 07:14:53;;;;;;;5.40;2.97;;;;;;;;;;6076075;23;20416;-89
2024/03/24 07:17:23;;;;;;;7.40;2.80;;;;;;;;;;6077405;23;20409;-87
2024/03/24 07:19:49;;;;;;;6.97;2.57;;;;;;;;;;6076384;23;20405;-87
2024/03/24 07:22:29;;;;;;;5.10;3.27;;;;;;;;;;6074444;23;20456;-87
2024/03/24 07:24:56;;;;;;;7.70;4.03;;;;;;;;;;6079232;23;20397;-88
2024/03/24 07:27:31;;;;;;;5.10;3.20;;;;;;;;;;6086222;23;20433;-86
2024/03/24 07:29:58;;;;;;;8.00;3.17;;;;;;;;;;6089279;23;20412;-85
2024/03/24 07:32:29;;;;;;;7.47;3.60;;;;;;;;;;6087655;23;20414;-86
2024/03/24 07:34:56;;;;;;;4.57;2.67;;;;;;;;;;6092940;23;20477;-86
2024/03/24 07:37:25;;;;;;;4.43;2.40;;;;;;;;;;6094026;23;20483;-86
2024/03/24 07:39:54;;;;;;;2.70;2.20;;;;;;;;;;6095473;23;20449;-88
2024/03/24 07:42:23;;;;;;;4.27;2.20;;;;;;;;;;6094629;23;20497;-89
2024/03/24 07:44:50;;;;;;;5.13;2.97;;;;;;;;;;6118315;23;20452;-88
2024/03/24 07:47:25;;;;;;;6.17;2.30;;;;;;;;;;6093771;23;20562;-86
2024/03/24 07:49:54;;;;;;;2.30;2.10;;;;;;;;;;6093113;23;20457;-89
2024/03/24 07:52:21;;;;;;;2.50;2.30;;;;;;;;;;6113374;23;20530;-85
2024/03/24 07:54:50;;;;;;;2.70;1.60;;;;;;;;;;6075593;23;20409;-86
2024/03/24 07:57:19;;;;;;;2.30;1.93;;;;;;;;;;6076464;23;20788;-86
2024/03/24 07:59:53;;;;;;;5.83;2.33;;;;;;;;;;6079847;23;20410;-86
2024/03/24 08:02:22;;;;;;;2.97;2.07;;;;;;;;;;6085060;23;20463;-88
2024/03/24 08:04:51;;;;;;;5.67;1.87;;;;;;;;;;6091296;23;20502;-90
2024/03/24 08:07:18;;;;;;;2.30;1.90;;;;;;;;;;6093875;23;20480;-89
2024/03/24 08:09:44;;;;;;;3.00;1.77;;;;;;;;;;6093729;23;20506;-90
2024/03/24 08:12:11;;;;;;;2.57;2.20;;;;;;;;;;6094733;23;20484;-88
2024/03/24 08:14:37;;;;;;;3.77;1.70;;;;;;;;;;6094081;23;20469;-88
2024/03/24 08:17:09;;;;;;;2.80;1.80;;;;;;;;;;6077070;23;20398;-86
2024/03/24 08:19:43;;;;;;;2.20;1.47;;;;;;;;;;6069064;23;20430;-85
2024/03/24 08:22:22;;;;;;;3.27;1.37;;;;;;;;;;6075168;23;20448;-87
2024/03/24 08:24:49;;;;;;;2.67;1.80;;;;;;;;;;6072589;23;20402;-88
2024/03/24 08:27:20;;;;;;;2.43;1.93;;;;;;;;;;6094684;23;20460;-87
2024/03/24 08:29:49;;;;;;;1.80;1.23;;;;;;;;;;6072386;23;20408;-86
2024/03/24 08:32:23;;;;;;;1.70;1.37;;;;;;;;;;6072886;23;20406;-87
2024/03/24 08:34:51;;;;;;;1.33;1.20;;;;;;;;;;6072844;23;20405;-87
2024/03/24 08:37:21;;;;;;;3.00;1.67;;;;;;;;;;6071955;23;20745;-87
2024/03/24 08:39:56;;;;;;;1.70;1.03;;;;;;;;;;6072114;23;20405;-87
2024/03/24 08:42:29;;;;;;;3.50;1.37;;;;;;;;;;6072860;23;20448;-87
2024/03/24 08:45:00;;;;;;;7.40;2.10;;;;;;;;;;6073029;23;20869;-87
2024/03/24 08:47:33;;;;;;;2.47;1.50;;;;;;;;;;6068923;23;20753;-87
2024/03/24 08:50:02;;;;;;;3.23;1.83;;;;;;;;;;6072625;23;20408;-87
2024/03/24 08:52:32;;;;;;;2.53;1.53;;;;;;;;;;6073292;23;20406;-88
2024/03/24 08:55:25;;;;;;;4.07;1.60;;;;;;;;;;6073161;23;20417;-88
2024/03/24 08:57:55;;;;;;;4.03;1.60;;;;;;;;;;6070791;23;20762;-87
2024/03/24 09:00:33;;;;;;;4.00;2.17;;;;;;;;;;6073469;23;20401;-88
2024/03/24 09:02:59;;;;;;;3.70;1.30;;;;;;;;;;6074470;23;20408;-87
2024/03/24 09:05:29;;;;;;;2.97;1.60;;;;;;;;;;6076703;23;20440;-87
2024/03/24 09:07:55;;;;;;;1.27;1.07;;;;;;;;;;6076138;23;20424;-87
2024/03/24 09:10:22;;;;;;;2.93;2.07;;;;;;;;;;6077083;23;20460;-88
2024/03/24 09:12:59;;;;;;;1.93;1.77;;;;;;;;;;6078091;23;20401;-87
2024/03/24 09:15:38;;;;;;;;;;;;;;;;;;;;;
2024/03/24 09:18:13;;;;;;;3.10;2.03;;;;;;;;;;6077937;23;20425;-87
2024/03/24 09:20:49;;;;;;;3.33;1.93;;;;;;;;;;6078547;23;20466;-86
2024/03/24 09:23:19;;;;;;;2.70;1.73;;;;;;;;;;6087666;23;20402;-86
2024/03/24 09:25:49;;;;;;;3.97;2.30;;;;;;;;;;6094201;23;20436;-86
2024/03/24 09:28:24;;;;;;;3.67;2.47;;;;;;;;;;6091818;23;20438;-88
2024/03/24 09:31:13;;;;;;;5.60;2.20;;;;;;;;;;6087171;23;20444;-88
2024/03/24 09:33:42;;;;;;;3.40;1.90;;;;;;;;;;6082661;23;20412;-88
2024/03/24 09:36:16;;;;;;;5.43;2.87;;;;;;;;;;6081591;23;20409;-87
2024/03/24 09:38:44;;;;;;;5.00;2.37;;;;;;;;;;6080724;23;20429;-87
2024/03/24 09:41:14;;;;;;;7.57;4.80;;;;;;;;;;6092519;23;20440;-86
2024/03/24 09:43:43;;;;;;;2.50;2.10;;;;;;;;;;6095846;23;20492;-87
2024/03/24 09:46:21;;;;;;;2.97;2.37;;;;;;;;;;6093155;23;20397;-85
2024/03/24 09:48:52;;;;;;;2.60;1.90;;;;;;;;;;6079188;23;20421;-86
2024/03/24 09:51:25;;;;;;;2.07;1.70;;;;;;;;;;6078626;23;20401;-87
2024/03/24 09:53:55;;;;;;;7.30;2.13;;;;;;;;;;6076513;23;20404;-86
2024/03/24 09:56:21;;;;;;;5.17;2.60;;;;;;;;;;6079290;23;20471;-85
2024/03/24 09:58:58;;;;;;;3.83;2.10;;;;;;;;;;6079822;23;20439;-86
2024/03/24 10:01:27;;;;;;;2.90;1.80;;;;;;;;;;6084791;23;20436;-85
2024/03/24 10:04:00;;;;;;;3.07;2.20;;;;;;;;;;6075177;23;20420;-86
2024/03/24 10:06:32;;;;;;;3.10;1.80;;;;;;;;;;6077162;23;20805;-87
2024/03/24 10:09:02;;;;;;;3.33;1.60;;;;;;;;;;6077439;23;20556;-88
2024/03/24 10:11:34;;;;;;;4.67;2.20;;;;;;;;;;6077907;23;20465;-86
2024/03/24 10:14:14;;;;;;;4.73;2.30;;;;;;;;;;6074872;23;20428;-86
2024/03/24 10:17:06;;;;;;;3.73;2.50;;;;;;;;;;6069045;23;20511;-87
2024/03/24 10:19:33;;;;;;;3.97;2.60;;;;;;;;;;6076101;23;20435;-86
2024/03/24 10:22:09;;;;;;;3.93;3.03;;;;;;;;;;6100938;23;20448;-86
2024/03/24 10:24:39;;;;;;;5.03;3.10;;;;;;;;;;6082725;23;20433;-88
2024/03/24 10:27:13;;;;;;;6.03;2.10;;;;;;;;;;6092588;23;20489;-87
2024/03/24 10:29:53;;;;;;;5.30;2.03;;;;;;;;;;6093656;23;20548;-88
2024/03/24 10:32:31;;;;;;;3.47;2.60;;;;;;;;;;6092430;23;20465;-87
2024/03/24 10:35:03;;;;;;;5.60;2.50;;;;;;;;;;6093090;23;20477;-87
2024/03/24 10:37:30;;;;;;;4.57;2.60;;;;;;;;;;6117086;23;20485;-88
2024/03/24 10:40:16;;;;;;;5.57;2.50;;;;;;;;;;6092940;23;20477;-89
2024/03/24 10:42:55;;;;;;;4.13;2.40;;;;;;;;;;6093726;23;20505;-89
2024/03/24 10:45:56;;;;;;;4.40;2.37;;;;;;;;;;6093827;23;20469;-90
2024/03/24 10:48:37;;;;;;;5.17;2.73;;;;;;;;;;6110186;23;20540;-87
2024/03/24 10:51:16;;;;;;;3.77;2.30;;;;;;;;;;6092377;23;20690;-87
2024/03/24 10:54:07;;;;;;;4.57;2.30;;;;;;;;;;6092182;23;20450;-86
2024/03/24 10:56:36;;;;;;;2.70;2.30;;;;;;;;;;6091955;23;20489;-88
2024/03/24 10:59:08;;;;;;;4.30;2.50;;;;;;;;;;6115176;23;20473;-88
2024/03/24 11:01:37;;;;;;;6.10;2.67;;;;;;;;;;6091964;23;20497;-88
2024/03/24 11:04:06;;;;;;;4.23;2.30;;;;;;;;;;6080627;23;20458;-85
2024/03/24 11:06:37;;;;;;;5.00;2.47;;;;;;;;;;6079907;23;20406;-87
2024/03/24 11:09:05;;;;;;;6.07;3.00;;;;;;;;;;6082441;23;20426;-83
2024/03/24 11:11:38;;;;;;;2.83;2.00;;;;;;;;;;6075599;23;20410;-87
2024/03/24 11:14:08;;;;;;;4.63;2.60;;;;;;;;;;6108331;23;20398;-86
2024/03/24 11:16:42;;;;;;;3.73;2.60;;;;;;;;;;6086342;23;20408;-86
2024/03/24 11:19:11;;;;;;;4.20;3.10;;;;;;;;;;6085854;23;20420;-87
2024/03/24 11:21:42;;;;;;;2.50;1.83;;;;;;;;;;6080877;23;20442;-87
2024/03/24 11:24:27;;;;;;;3.20;2.30;;;;;;;;;;6091235;23;20802;-88
2024/03/24 11:27:10;;;;;;;4.07;2.30;;;;;;;;;;6089130;23;20808;-87
2024/03/24 11:29:55;;;;;;;4.90;2.30;;;;;;;;;;6090673;23;20505;-85
2024/03/24 11:43:41;;;;;;;2.17;1.70;;;;;;;;;;6094725;23;20412;-88
2024/03/24 11:46:14;;;;;;;2.70;1.73;;;;;;;;;;6093295;23;20465;-86
2024/03/24 11:48:43;;;;;;;4.13;1.80;;;;;;;;;;6068446;23;20492;-89
2024/03/24 11:51:13;;;;;;;4.67;1.93;;;;;;;;;;6091083;23;20465;-89
2024/03/24 11:54:01;;;;;;;2.70;1.90;;;;;;;;;;6088507;23;20404;-88
2024/03/24 11:57:04;;;;;;;3.53;2.00;;;;;;;;;;6086622;23;20406;-90
2024/03/24 11:59:39;;;;;;;4.87;2.27;;;;;;;;;;6020582;23;20472;-87
2024/03/24 12:02:11;;;;;;;4.03;1.93;;;;;;;;;;5971716;24;20444;-86
2024/03/24 12:04:40;;;;;;;5.13;2.00;;;;;;;;;;5968164;24;20409;-87
2024/03/24 12:07:28;;;;;;;4.87;2.10;;;;;;;;;;5971568;24;20409;-87
2024/03/24 12:10:02;;;;;;;6.20;2.43;;;;;;;;;;5963783;24;20416;-87
2024/03/24 12:12:31;;;;;;;4.97;2.50;;;;;;;;;;5944404;24;20420;-87
2024/03/24 12:15:19;;;;;;;6.00;3.83;;;;;;;;;;5967832;24;20409;-87
2024/03/24 12:18:10;;;;;;;7.20;2.37;;;;;;;;;;5964405;24;20971;-87
2024/03/24 12:23:53;;;;;;;6.90;2.30;;;;;;;;;;5964442;24;20409;-87
2024/03/24 12:26:26;;;;;;;10.17;2.60;;;;;;;;;;5947050;24;20407;-86
2024/03/24 12:29:10;;;;;;;3.40;2.00;;;;;;;;;;5949504;24;20413;-86
2024/03/24 12:31:45;;;;;;;6.33;2.37;;;;;;;;;;5965723;24;20472;-86
2024/03/24 12:34:14;;;;;;;3.63;2.40;;;;;;;;;;5965115;24;20711;-86
2024/03/24 12:37:05;;;;;;;4.90;2.60;;;;;;;;;;5975840;24;20433;-86
2024/03/24 12:39:39;;;;;;;5.53;2.63;;;;;;;;;;5956818;24;20473;-87
2024/03/24 12:42:12;;;;;;;6.90;2.30;;;;;;;;;;5954787;24;20453;-89
2024/03/24 12:44:42;;;;;;;7.13;2.60;;;;;;;;;;5944585;24;20412;-88
2024/03/24 12:50:05;;;;;;;3.10;2.20;;;;;;;;;;5964116;24;20409;-88
2024/03/24 12:52:34;;;;;;;2.73;1.77;;;;;;;;;;5966693;24;20458;-88
2024/03/24 12:55:06;;;;;;;2.67;2.47;;;;;;;;;;5966310;24;20414;-87
2024/03/24 12:57:35;;;;;;;5.20;2.00;;;;;;;;;;5965831;24;20412;-86
2024/03/24 13:00:05;;;;;;;2.47;1.80;;;;;;;;;;5973504;24;20445;-87
2024/03/24 13:02:32;;;;;;;2.40;1.53;;;;;;;;;;5998428;24;20453;-88
2024/03/24 13:05:01;;;;;;;4.27;2.43;;;;;;;;;;5973480;24;20752;-88
2024/03/24 13:07:31;;;;;;;3.50;2.10;;;;;;;;;;5968628;24;20405;-88
2024/03/24 13:09:57;;;;;;;7.00;2.03;;;;;;;;;;5966035;24;20405;-87
2024/03/24 13:12:34;;;;;;;6.43;2.17;;;;;;;;;;5943308;24;20413;-88
2024/03/24 13:15:05;;;;;;;3.33;2.00;;;;;;;;;;5942721;24;20423;-87
2024/03/24 13:17:33;;;;;;;4.83;1.93;;;;;;;;;;5943112;24;20492;-86
2024/03/24 13:20:05;;;;;;;4.40;2.27;;;;;;;;;;5966283;24;20409;-86
2024/03/24 13:22:32;;;;;;;3.50;2.00;;;;;;;;;;5942562;24;20445;-89
2024/03/24 13:25:04;;;;;;;4.07;2.03;;;;;;;;;;5963086;24;20413;-87
2024/03/24 13:27:53;;;;;;;5.90;2.40;;;;;;;;;;5940127;23;20578;-85
2024/03/24 13:30:33;;;;;;;6.90;2.17;;;;;;;;;;5940463;24;20489;-87
2024/03/24 13:33:03;;;;;;;5.50;2.60;;;;;;;;;;5945813;24;20407;-86
2024/03/24 13:35:29;;;;;;;9.53;3.97;;;;;;;;;;5964600;24;20413;-87
2024/03/24 13:38:14;;;;;;;4.00;2.17;;;;;;;;;;5947639;23;20436;-87
2024/03/24 13:40:58;;;;;;;2.63;2.07;;;;;;;;;;5965839;24;20407;-88
2024/03/24 13:43:44;;;;;;;3.23;2.20;;;;;;;;;;5944787;24;20394;-87
2024/03/24 13:46:24;;;;;;;2.50;1.80;;;;;;;;;;5966308;24;20405;-86
2024/03/24 13:48:58;;;;;;;2.40;1.93;;;;;;;;;;5941393;24;20433;-87
2024/03/24 13:51:28;;;;;;;4.43;2.00;;;;;;;;;;5966073;24;20412;-87
2024/03/24 13:54:03;;;;;;;1.93;1.73;;;;;;;;;;5963177;24;20405;-87
2024/03/24 13:56:41;;;;;;;4.60;2.20;;;;;;;;;;5915950;24;20427;-87
2024/03/24 13:59:07;;;;;;;9.70;2.60;;;;;;;;;;5963137;24;20448;-87
2024/03/24 14:01:42;;;;;;;6.00;2.03;;;;;;;;;;5962270;24;20463;-87
2024/03/24 14:04:11;;;;;;;7.00;2.50;;;;;;;;;;5963723;24;20405;-87
2024/03/24 14:07:04;;;;;;;3.77;2.07;;;;;;;;;;5969582;24;20445;-87
2024/03/24 14:09:47;;;;;;;;;;;;;;;;;;;;;
2024/03/24 14:12:29;;;;;;;6.23;3.77;;;;;;;;;;5961306;24;20417;-86
2024/03/24 14:15:15;;;;;;;3.77;2.30;;;;;;;;;;5962069;24;20410;-85
2024/03/24 14:18:02;;;;;;;2.80;1.50;;;;;;;;;;5960534;24;20758;-86
2024/03/24 14:20:43;;;;;;;3.90;3.10;;;;;;;;;;5960158;24;20413;-88
2024/03/24 14:23:39;;;;;;;4.73;1.67;;;;;;;;;;5960850;24;20455;-86
2024/03/24 14:26:35;;;;;;;7.03;2.00;;;;;;;;;;5921000;24;20421;-87
2024/03/24 14:29:11;;;;;;;5.07;2.00;;;;;;;;;;5959519;24;20431;-88
2024/03/24 14:31:42;;;;;;;3.80;2.00;;;;;;;;;;5957370;24;20435;-86
2024/03/24 14:34:12;;;;;;;2.83;1.80;;;;;;;;;;5956852;24;20414;-88
2024/03/24 14:37:04;;;;;;;5.27;3.47;;;;;;;;;;5957883;24;20409;-85
2024/03/24 14:39:54;;;;;;;3.83;2.30;;;;;;;;;;5934203;24;20455;-87
2024/03/24 14:46:16;;;;;;;6.47;2.10;;;;;;;;;;5943259;24;20409;-86
2024/03/24 14:48:46;;;;;;;4.30;2.13;;;;;;;;;;5910363;24;20425;-88
2024/03/24 14:51:12;;;;;;;4.13;1.77;;;;;;;;;;5953690;23;20480;-89
2024/03/24 14:53:48;;;;;;;3.00;1.80;;;;;;;;;;5957521;23;20487;-89
2024/03/24 14:56:29;;;;;;;4.20;1.87;;;;;;;;;;5980464;23;20472;-86
2024/03/24 14:59:09;;;;;;;3.93;3.10;;;;;;;;;;5986139;23;20511;-86
2024/03/24 15:01:46;;;;;;;4.53;2.23;;;;;;;;;;5986143;23;20499;-87
2024/03/24 15:04:13;;;;;;;5.90;1.93;;;;;;;;;;5969013;24;20463;-87
2024/03/24 15:06:48;;;;;;;7.30;2.00;;;;;;;;;;5968066;24;20925;-86
2024/03/24 15:09:15;;;;;;;4.10;2.30;;;;;;;;;;5970899;24;20428;-86
2024/03/24 15:11:49;;;;;;;3.87;2.17;;;;;;;;;;5970352;24;20539;-86
2024/03/24 15:17:50;;;;;;;4.07;1.90;;;;;;;;;;6009360;23;20406;-85
2024/03/24 15:20:22;;;;;;;5.17;2.30;;;;;;;;;;5985862;23;20480;-85
2024/03/24 15:22:53;;;;;;;7.17;2.20;;;;;;;;;;5987318;23;20512;-87
2024/03/24 15:25:23;;;;;;;3.93;2.20;;;;;;;;;;5986996;23;20545;-87
2024/03/24 15:27:52;;;;;;;3.23;1.47;;;;;;;;;;5986569;23;20556;-88
2024/03/24 15:30:25;;;;;;;2.57;1.57;;;;;;;;;;5986059;23;20476;-87
2024/03/24 15:32:59;;;;;;;3.30;1.70;;;;;;;;;;5965337;23;20471;-87
2024/03/24 15:35:49;;;;;;;3.63;1.70;;;;;;;;;;5985555;23;20558;-88
2024/03/24 15:38:55;;;;;;;2.07;1.87;;;;;;;;;;5961298;23;20483;-88